Time;durP1;ratioP1;P1;durP2;ratioP2;P2;SDS_P1;SDS_P2;PMS_P1;PMS_P2;Temp;Humidity;BMP_temperature;BMP_pressure;BME280_temperature;BME280_humidity;BME280_pressure;Samples;Min_cycle;Max_cycle;Signal;HPM_P1;HPM_P2
2021/01/24 00:00:55;;;;;;;4.10;2.93;;;;;;;;;;5030904;28;20727;-56
2021/01/24 00:03:24;;;;;;;5.93;2.80;;;;;;;;;;5009644;28;20210;-57
2021/01/24 00:05:50;;;;;;;2.90;2.60;;;;;;;;;;5022106;28;20719;-56
2021/01/24 00:08:16;;;;;;;3.27;2.97;;;;;;;;;;5010791;28;20285;-56
2021/01/24 00:10:42;;;;;;;5.10;3.40;;;;;;;;;;5012764;28;20762;-56
2021/01/24 00:13:09;;;;;;;3.30;2.67;;;;;;;;;;5030201;28;20178;-56
2021/01/24 00:15:35;;;;;;;3.73;2.90;;;;;;;;;;5012629;28;20182;-56
2021/01/24 00:18:01;;;;;;;2.60;2.40;;;;;;;;;;5025022;28;20574;-57
2021/01/24 00:20:27;;;;;;;3.30;2.60;;;;;;;;;;5029570;28;20548;-56
2021/01/24 00:22:53;;;;;;;2.93;2.60;;;;;;;;;;5010398;28;20181;-56
2021/01/24 00:25:19;;;;;;;2.77;2.50;;;;;;;;;;5006306;28;20244;-56
2021/01/24 00:27:45;;;;;;;2.67;2.47;;;;;;;;;;5026718;28;20565;-59
2021/01/24 00:30:12;;;;;;;3.17;2.33;;;;;;;;;;5009329;28;20189;-56
2021/01/24 00:32:38;;;;;;;3.07;2.50;;;;;;;;;;5028982;28;20245;-55
2021/01/24 00:35:06;;;;;;;4.60;2.80;;;;;;;;;;5029869;28;20182;-56
2021/01/24 00:37:32;;;;;;;2.30;2.10;;;;;;;;;;5028526;28;20170;-56
2021/01/24 00:39:58;;;;;;;2.50;2.30;;;;;;;;;;5004107;28;20181;-56
2021/01/24 00:42:24;;;;;;;2.90;2.30;;;;;;;;;;5030247;28;20223;-56
2021/01/24 00:44:50;;;;;;;2.90;2.60;;;;;;;;;;5015801;28;20301;-57
2021/01/24 00:47:16;;;;;;;2.60;2.00;;;;;;;;;;5010955;28;20511;-56
2021/01/24 00:49:42;;;;;;;2.90;1.90;;;;;;;;;;5030531;28;20181;-56
2021/01/24 00:52:10;;;;;;;2.53;2.33;;;;;;;;;;5022255;28;20205;-56
2021/01/24 00:54:36;;;;;;;2.50;2.30;;;;;;;;;;5007702;28;20174;-57
2021/01/24 00:57:02;;;;;;;2.30;2.10;;;;;;;;;;5027989;28;20174;-56
2021/01/24 00:59:28;;;;;;;3.17;1.70;;;;;;;;;;5025650;28;20185;-56
2021/01/24 01:01:54;;;;;;;2.43;2.10;;;;;;;;;;5029401;28;20188;-56
2021/01/24 01:04:20;;;;;;;2.33;1.67;;;;;;;;;;4999082;28;20170;-56
2021/01/24 01:06:46;;;;;;;2.17;1.97;;;;;;;;;;5025256;28;20185;-56
2021/01/24 01:09:12;;;;;;;2.10;1.90;;;;;;;;;;5025725;28;20210;-56
2021/01/24 01:11:38;;;;;;;2.17;1.97;;;;;;;;;;5027134;28;20218;-56
2021/01/24 01:14:04;;;;;;;1.93;1.73;;;;;;;;;;5017134;28;20206;-56
2021/01/24 01:16:30;;;;;;;1.77;1.53;;;;;;;;;;5024273;28;20585;-56
2021/01/24 01:18:56;;;;;;;2.07;1.60;;;;;;;;;;5018215;28;20202;-57
2021/01/24 01:21:22;;;;;;;1.80;1.70;;;;;;;;;;5029361;28;20169;-56
2021/01/24 01:23:48;;;;;;;1.60;1.50;;;;;;;;;;5014673;28;20652;-56
2021/01/24 01:26:15;;;;;;;1.60;1.47;;;;;;;;;;5028142;28;20640;-56
2021/01/24 01:28:41;;;;;;;1.33;1.23;;;;;;;;;;5024239;28;20181;-56
2021/01/24 01:31:07;;;;;;;1.23;1.13;;;;;;;;;;5028664;28;20568;-56
2021/01/24 01:33:33;;;;;;;2.03;1.53;;;;;;;;;;5000400;28;20185;-56
2021/01/24 01:35:59;;;;;;;1.80;1.60;;;;;;;;;;5023849;28;20178;-56
2021/01/24 01:38:25;;;;;;;1.70;1.50;;;;;;;;;;5012870;28;20187;-56
2021/01/24 01:40:54;;;;;;;2.50;2.27;;;;;;;;;;5004976;28;20177;-56
2021/01/24 01:43:20;;;;;;;2.90;2.40;;;;;;;;;;5023004;28;20529;-56
2021/01/24 01:45:46;;;;;;;3.07;2.60;;;;;;;;;;5025603;28;20625;-58
2021/01/24 01:48:12;;;;;;;3.57;3.27;;;;;;;;;;5012357;28;20186;-56
2021/01/24 01:50:38;;;;;;;5.03;3.57;;;;;;;;;;5015791;28;20600;-56
2021/01/24 01:53:04;;;;;;;4.23;3.63;;;;;;;;;;5026774;28;20188;-56
2021/01/24 01:55:30;;;;;;;5.90;5.10;;;;;;;;;;5028305;28;20205;-57
2021/01/24 01:57:57;;;;;;;4.93;4.43;;;;;;;;;;5027940;28;20178;-57
2021/01/24 02:00:23;;;;;;;7.13;6.43;;;;;;;;;;5028130;28;20228;-55
2021/01/24 02:02:57;;;;;;;6.67;5.97;;;;;;;;;;5021824;28;20228;-56
2021/01/24 02:05:32;;;;;;;5.63;5.03;;;;;;;;;;5031630;28;20181;-56
2021/01/24 02:07:59;;;;;;;6.87;6.27;;;;;;;;;;5024567;28;20208;-56
2021/01/24 02:10:29;;;;;;;6.77;6.17;;;;;;;;;;5030316;28;20218;-56
2021/01/24 02:13:14;;;;;;;8.30;7.50;;;;;;;;;;5027673;28;20202;-56
2021/01/24 02:15:42;;;;;;;8.53;7.27;;;;;;;;;;5013406;28;20553;-56
2021/01/24 02:18:09;;;;;;;8.63;7.80;;;;;;;;;;5020460;28;20185;-56
2021/01/24 02:20:47;;;;;;;8.70;7.87;;;;;;;;;;5013095;28;20265;-57
2021/01/24 02:23:15;;;;;;;8.47;7.67;;;;;;;;;;5025537;28;20186;-56
2021/01/24 02:25:51;;;;;;;8.70;7.80;;;;;;;;;;5032118;28;20182;-56
2021/01/24 02:28:29;;;;;;;7.90;7.10;;;;;;;;;;5030090;28;20253;-56
2021/01/24 02:30:56;;;;;;;7.30;6.63;;;;;;;;;;5014522;28;20170;-56
2021/01/24 02:33:24;;;;;;;7.40;6.70;;;;;;;;;;5027120;28;20181;-56
2021/01/24 02:35:54;;;;;;;7.07;6.37;;;;;;;;;;5015109;28;20663;-56
2021/01/24 02:38:21;;;;;;;7.27;6.23;;;;;;;;;;5023624;28;20582;-56
2021/01/24 02:40:48;;;;;;;7.37;6.17;;;;;;;;;;5024277;28;20178;-58
2021/01/24 02:43:14;;;;;;;8.00;7.10;;;;;;;;;;5024559;28;20553;-56
2021/01/24 02:45:42;;;;;;;7.80;5.83;;;;;;;;;;5019680;28;20183;-56
2021/01/24 02:48:09;;;;;;;6.37;5.57;;;;;;;;;;5024905;28;20249;-55
2021/01/24 02:50:35;;;;;;;6.70;5.97;;;;;;;;;;5015720;28;20597;-55
2021/01/24 02:53:02;;;;;;;6.53;5.60;;;;;;;;;;5028631;28;20287;-56
2021/01/24 02:55:28;;;;;;;7.27;6.20;;;;;;;;;;5026427;28;20597;-55
2021/01/24 02:57:55;;;;;;;7.83;6.10;;;;;;;;;;5020140;28;20251;-57
2021/01/24 03:00:21;;;;;;;8.93;5.97;;;;;;;;;;5029428;28;20174;-55
2021/01/24 03:02:48;;;;;;;7.13;5.87;;;;;;;;;;5004377;28;20571;-56
2021/01/24 03:05:14;;;;;;;9.43;6.17;;;;;;;;;;5027252;28;20272;-55
2021/01/24 03:07:41;;;;;;;7.83;6.00;;;;;;;;;;4997010;28;20224;-55
2021/01/24 03:10:07;;;;;;;6.07;5.07;;;;;;;;;;5016366;28;20173;-55
2021/01/24 03:12:35;;;;;;;6.00;5.33;;;;;;;;;;5005505;28;20308;-56
2021/01/24 03:15:02;;;;;;;5.83;4.80;;;;;;;;;;5026404;28;20429;-55
2021/01/24 03:17:29;;;;;;;7.80;5.37;;;;;;;;;;5021809;28;20185;-56
2021/01/24 03:19:55;;;;;;;8.27;5.20;;;;;;;;;;5027657;28;20200;-56
2021/01/24 03:22:21;;;;;;;6.20;5.17;;;;;;;;;;4999219;28;20932;-55
2021/01/24 03:24:49;;;;;;;6.63;5.27;;;;;;;;;;5026964;28;20189;-55
2021/01/24 03:27:15;;;;;;;6.00;5.40;;;;;;;;;;5011298;28;20260;-55
2021/01/24 03:29:41;;;;;;;7.33;5.23;;;;;;;;;;5027731;28;21002;-55
2021/01/24 03:32:07;;;;;;;4.90;4.30;;;;;;;;;;5029252;28;20593;-55
2021/01/24 03:34:33;;;;;;;4.87;4.20;;;;;;;;;;5018590;28;20425;-56
2021/01/24 03:36:59;;;;;;;5.67;4.33;;;;;;;;;;5017673;28;20421;-55
2021/01/24 03:39:25;;;;;;;3.97;3.33;;;;;;;;;;5017648;28;20459;-55
2021/01/24 03:41:51;;;;;;;4.37;3.90;;;;;;;;;;5029538;28;21028;-55
2021/01/24 03:44:17;;;;;;;3.60;2.93;;;;;;;;;;5025585;28;20194;-55
2021/01/24 03:46:43;;;;;;;3.60;3.30;;;;;;;;;;5027784;28;20189;-56
2021/01/24 03:49:09;;;;;;;4.83;3.57;;;;;;;;;;5018825;28;20832;-55
2021/01/24 03:51:35;;;;;;;3.23;2.97;;;;;;;;;;5028606;28;20560;-55
2021/01/24 03:54:02;;;;;;;3.80;3.20;;;;;;;;;;5023579;28;20424;-55
2021/01/24 03:56:28;;;;;;;3.53;3.07;;;;;;;;;;5028067;28;20866;-55
2021/01/24 03:58:54;;;;;;;3.33;3.03;;;;;;;;;;5021372;28;20177;-55
2021/01/24 04:01:20;;;;;;;3.50;2.83;;;;;;;;;;5028676;28;20186;-55
2021/01/24 04:03:46;;;;;;;3.50;3.20;;;;;;;;;;5021820;28;20436;-55
2021/01/24 04:06:12;;;;;;;3.00;2.70;;;;;;;;;;5024165;28;20181;-56
2021/01/24 04:08:38;;;;;;;4.37;2.60;;;;;;;;;;5023080;28;20288;-58
2021/01/24 04:11:04;;;;;;;2.97;2.27;;;;;;;;;;5018772;28;20382;-55
2021/01/24 04:13:30;;;;;;;2.97;2.67;;;;;;;;;;5003136;28;20332;-55
2021/01/24 04:15:56;;;;;;;2.57;2.27;;;;;;;;;;5010927;28;20178;-56
2021/01/24 04:18:22;;;;;;;2.20;2.00;;;;;;;;;;4999444;28;20189;-56
2021/01/24 04:20:48;;;;;;;2.47;2.27;;;;;;;;;;5009448;28;20182;-58
2021/01/24 04:23:14;;;;;;;2.67;2.10;;;;;;;;;;5023177;28;20209;-55
2021/01/24 04:25:40;;;;;;;2.23;2.00;;;;;;;;;;5002115;28;20174;-55
2021/01/24 04:28:06;;;;;;;2.50;2.30;;;;;;;;;;5027672;28;20928;-55
2021/01/24 04:30:32;;;;;;;2.70;2.40;;;;;;;;;;5003380;28;20706;-56
2021/01/24 04:32:58;;;;;;;3.17;2.63;;;;;;;;;;5024890;28;20202;-56
2021/01/24 04:35:24;;;;;;;2.80;2.20;;;;;;;;;;5021397;28;20178;-55
2021/01/24 04:37:50;;;;;;;2.37;2.17;;;;;;;;;;5026354;28;20178;-56
2021/01/24 04:40:16;;;;;;;2.33;2.10;;;;;;;;;;5017338;28;20413;-55
2021/01/24 04:42:43;;;;;;;2.07;1.90;;;;;;;;;;5015948;28;20604;-55
2021/01/24 04:45:09;;;;;;;2.53;2.10;;;;;;;;;;5015112;28;20428;-56
2021/01/24 04:47:38;;;;;;;2.07;1.93;;;;;;;;;;5023330;28;20484;-55
2021/01/24 04:50:04;;;;;;;2.13;1.93;;;;;;;;;;5025759;28;20421;-56
2021/01/24 04:52:31;;;;;;;1.93;1.73;;;;;;;;;;5020734;28;20475;-55
2021/01/24 04:54:57;;;;;;;2.33;2.13;;;;;;;;;;5028338;28;20420;-55
2021/01/24 04:57:24;;;;;;;2.37;2.17;;;;;;;;;;5027103;28;20194;-56
2021/01/24 04:59:50;;;;;;;2.53;2.17;;;;;;;;;;5016983;28;20277;-56
2021/01/24 05:02:16;;;;;;;2.00;1.73;;;;;;;;;;5012478;28;20437;-56
2021/01/24 05:04:43;;;;;;;2.33;1.80;;;;;;;;;;5011054;28;20607;-55
2021/01/24 05:07:09;;;;;;;1.70;1.60;;;;;;;;;;5010412;28;20257;-56
2021/01/24 05:09:35;;;;;;;1.53;1.43;;;;;;;;;;4996118;28;20988;-56
2021/01/24 05:12:01;;;;;;;1.60;1.40;;;;;;;;;;4997151;28;20233;-56
2021/01/24 05:14:27;;;;;;;1.40;1.30;;;;;;;;;;5013274;28;20219;-58
2021/01/24 05:16:53;;;;;;;1.40;1.30;;;;;;;;;;5010510;28;20601;-56
2021/01/24 05:19:23;;;;;;;1.30;1.20;;;;;;;;;;5012577;28;20262;-56
2021/01/24 05:21:50;;;;;;;1.43;1.33;;;;;;;;;;5014196;28;20438;-56
2021/01/24 05:24:17;;;;;;;1.47;1.37;;;;;;;;;;5009558;28;20421;-56
2021/01/24 05:26:44;;;;;;;1.43;1.30;;;;;;;;;;5025984;28;20566;-56
2021/01/24 05:29:26;;;;;;;0.90;0.90;;;;;;;;;;4995671;28;20208;-56
2021/01/24 05:31:53;;;;;;;1.63;1.33;;;;;;;;;;5024564;28;20550;-56
2021/01/24 05:34:25;;;;;;;1.20;1.07;;;;;;;;;;5024470;28;20546;-58
2021/01/24 05:36:51;;;;;;;1.30;1.20;;;;;;;;;;5019358;28;20417;-55
2021/01/24 05:39:18;;;;;;;1.37;1.17;;;;;;;;;;4992402;28;20273;-56
2021/01/24 05:41:50;;;;;;;1.10;1.00;;;;;;;;;;5021827;28;20189;-56
2021/01/24 05:44:18;;;;;;;1.27;1.13;;;;;;;;;;5017915;28;20178;-56
2021/01/24 05:46:44;;;;;;;1.23;1.13;;;;;;;;;;5009816;28;20429;-56
2021/01/24 05:49:11;;;;;;;1.37;1.27;;;;;;;;;;4980614;28;20181;-56
2021/01/24 05:51:37;;;;;;;1.53;1.17;;;;;;;;;;5015910;28;20548;-56
2021/01/24 05:54:03;;;;;;;1.37;1.20;;;;;;;;;;4997827;28;20183;-56
2021/01/24 05:56:30;;;;;;;1.30;1.20;;;;;;;;;;4992542;28;20849;-56
2021/01/24 05:59:00;;;;;;;1.37;1.27;;;;;;;;;;5000556;28;20519;-55
2021/01/24 06:01:26;;;;;;;1.40;1.27;;;;;;;;;;5004527;28;20467;-56
2021/01/24 06:03:57;;;;;;;1.40;1.13;;;;;;;;;;5000979;28;20420;-56
2021/01/24 06:06:23;;;;;;;1.40;1.30;;;;;;;;;;5021514;28;20428;-58
2021/01/24 06:08:50;;;;;;;1.40;1.30;;;;;;;;;;5026272;28;20480;-58
2021/01/24 06:11:16;;;;;;;1.17;1.07;;;;;;;;;;5008788;28;20522;-56
2021/01/24 06:13:45;;;;;;;2.97;1.30;;;;;;;;;;5009860;28;20816;-56
2021/01/24 06:16:13;;;;;;;1.37;1.27;;;;;;;;;;5004915;28;20780;-55
2021/01/24 06:18:42;;;;;;;1.53;1.40;;;;;;;;;;5003778;28;20884;-55
2021/01/24 06:21:11;;;;;;;1.77;1.57;;;;;;;;;;5008788;28;20463;-56
2021/01/24 06:23:43;;;;;;;1.77;1.67;;;;;;;;;;5024058;28;20631;-58
2021/01/24 06:26:11;;;;;;;1.90;1.70;;;;;;;;;;5006862;28;20911;-56
2021/01/24 06:28:40;;;;;;;3.57;1.97;;;;;;;;;;4995539;28;20459;-58
2021/01/24 06:31:12;;;;;;;2.97;1.60;;;;;;;;;;5021706;28;20810;-56
2021/01/24 06:33:38;;;;;;;1.90;1.70;;;;;;;;;;5008666;28;20460;-58
2021/01/24 06:36:05;;;;;;;2.70;1.87;;;;;;;;;;5019008;28;20429;-57
2021/01/24 06:38:35;;;;;;;2.93;2.17;;;;;;;;;;5002148;28;20651;-57
2021/01/24 06:41:03;;;;;;;2.30;1.83;;;;;;;;;;4999021;28;20753;-60
2021/01/24 06:43:40;;;;;;;4.27;2.83;;;;;;;;;;5010044;28;20768;-58
2021/01/24 06:46:07;;;;;;;2.37;2.00;;;;;;;;;;5023562;28;20424;-57
2021/01/24 06:48:40;;;;;;;2.93;2.10;;;;;;;;;;5019060;28;20436;-58
2021/01/24 06:51:26;;;;;;;2.80;2.50;;;;;;;;;;5024258;28;20412;-58
2021/01/24 06:53:52;;;;;;;2.70;2.37;;;;;;;;;;5011856;28;20459;-57
2021/01/24 06:56:18;;;;;;;3.10;2.67;;;;;;;;;;5003459;28;20478;-58
2021/01/24 06:58:51;;;;;;;6.70;4.80;;;;;;;;;;5020678;28;20437;-57
2021/01/24 07:01:24;;;;;;;5.97;3.87;;;;;;;;;;5012018;28;20483;-58
2021/01/24 07:04:08;;;;;;;4.60;3.50;;;;;;;;;;5020112;28;20436;-58
2021/01/24 07:06:34;;;;;;;5.60;3.93;;;;;;;;;;4995780;28;20842;-57
2021/01/24 07:09:01;;;;;;;4.77;3.80;;;;;;;;;;5022504;28;20517;-58
2021/01/24 07:11:45;;;;;;;4.47;3.73;;;;;;;;;;5006875;28;20468;-57
2021/01/24 07:14:34;;;;;;;6.13;4.17;;;;;;;;;;5017819;28;20424;-57
2021/01/24 07:17:07;;;;;;;5.70;3.80;;;;;;;;;;5000171;28;20483;-60
2021/01/24 07:19:34;;;;;;;6.90;4.47;;;;;;;;;;5019816;28;20504;-58
2021/01/24 07:22:00;;;;;;;6.63;4.23;;;;;;;;;;5019216;28;20437;-60
2021/01/24 07:24:27;;;;;;;5.27;3.70;;;;;;;;;;5011907;28;20428;-58
2021/01/24 07:26:57;;;;;;;11.67;5.53;;;;;;;;;;5026159;28;20534;-58
2021/01/24 07:29:23;;;;;;;6.83;5.37;;;;;;;;;;5020885;28;20437;-57
2021/01/24 07:31:49;;;;;;;9.27;5.93;;;;;;;;;;5017913;28;20511;-57
2021/01/24 07:34:19;;;;;;;7.30;5.23;;;;;;;;;;5025148;28;20440;-59
2021/01/24 07:36:48;;;;;;;6.97;5.37;;;;;;;;;;5025231;28;20494;-57
2021/01/24 07:39:15;;;;;;;7.73;6.00;;;;;;;;;;5009540;28;20464;-57
2021/01/24 07:41:42;;;;;;;7.67;5.73;;;;;;;;;;5012061;28;20201;-57
2021/01/24 07:44:08;;;;;;;35.50;9.20;;;;;;;;;;5023098;28;20884;-57
2021/01/24 07:46:34;;;;;;;16.80;8.03;;;;;;;;;;5026510;28;20457;-58
2021/01/24 07:49:00;;;;;;;7.67;6.30;;;;;;;;;;5022560;28;20364;-56
2021/01/24 07:51:26;;;;;;;7.77;6.40;;;;;;;;;;5023056;28;20502;-56
2021/01/24 07:53:53;;;;;;;8.93;6.60;;;;;;;;;;5026548;28;20486;-56
2021/01/24 07:56:19;;;;;;;10.03;6.97;;;;;;;;;;5027244;28;20444;-58
2021/01/24 07:58:45;;;;;;;8.53;6.30;;;;;;;;;;5027213;28;20969;-56
2021/01/24 08:01:12;;;;;;;10.13;6.73;;;;;;;;;;5020636;28;20900;-58
2021/01/24 08:03:38;;;;;;;9.37;5.87;;;;;;;;;;5025687;28;20940;-58
2021/01/24 08:06:11;;;;;;;8.30;6.63;;;;;;;;;;5024803;28;20511;-55
2021/01/24 08:08:38;;;;;;;7.87;6.13;;;;;;;;;;5018781;28;20481;-56
2021/01/24 08:11:04;;;;;;;9.30;7.23;;;;;;;;;;5020010;28;20467;-56
2021/01/24 08:13:30;;;;;;;6.97;5.73;;;;;;;;;;5016869;28;20436;-55
2021/01/24 08:15:57;;;;;;;7.67;6.47;;;;;;;;;;5021263;28;20778;-58
2021/01/24 08:18:25;;;;;;;10.27;6.70;;;;;;;;;;5003836;28;20444;-58
2021/01/24 08:20:51;;;;;;;8.47;6.57;;;;;;;;;;5026097;28;20425;-57
2021/01/24 08:23:17;;;;;;;8.47;6.80;;;;;;;;;;5026317;28;20443;-57
2021/01/24 08:25:44;;;;;;;8.43;6.70;;;;;;;;;;5025765;28;20420;-57
2021/01/24 08:28:11;;;;;;;9.27;7.30;;;;;;;;;;5025592;28;20424;-58
2021/01/24 08:30:41;;;;;;;9.33;7.37;;;;;;;;;;5023391;28;20428;-58
2021/01/24 08:33:08;;;;;;;8.83;7.20;;;;;;;;;;5024394;28;20514;-58
2021/01/24 08:35:34;;;;;;;8.97;7.57;;;;;;;;;;5021794;28;20520;-57
2021/01/24 08:38:01;;;;;;;8.70;7.07;;;;;;;;;;5010318;28;20420;-57
2021/01/24 08:40:34;;;;;;;9.53;6.83;;;;;;;;;;5025064;28;20422;-57
2021/01/24 08:43:01;;;;;;;11.53;7.67;;;;;;;;;;5005024;28;20460;-57
2021/01/24 08:45:28;;;;;;;9.97;7.40;;;;;;;;;;5025752;28;20432;-57
2021/01/24 08:47:55;;;;;;;11.90;8.37;;;;;;;;;;4998871;28;20429;-57
2021/01/24 08:50:22;;;;;;;10.87;7.97;;;;;;;;;;5023212;28;20431;-59
2021/01/24 08:52:58;;;;;;;10.60;8.10;;;;;;;;;;5007641;28;20455;-57
2021/01/24 08:55:24;;;;;;;8.57;7.33;;;;;;;;;;5024087;28;20447;-57
2021/01/24 08:57:50;;;;;;;10.17;7.57;;;;;;;;;;5023313;28;20424;-57
2021/01/24 09:00:17;;;;;;;9.90;7.50;;;;;;;;;;5021151;28;20432;-59
2021/01/24 09:02:43;;;;;;;10.23;7.90;;;;;;;;;;5025505;28;20262;-58
2021/01/24 09:05:30;;;;;;;11.97;8.13;;;;;;;;;;5017601;28;20539;-57
2021/01/24 09:07:56;;;;;;;11.00;7.57;;;;;;;;;;5003633;28;20432;-56
2021/01/24 09:10:22;;;;;;;10.23;6.90;;;;;;;;;;5021245;28;20538;-56
2021/01/24 09:12:49;;;;;;;10.17;7.57;;;;;;;;;;5015648;28;20461;-57
2021/01/24 09:15:16;;;;;;;8.40;7.13;;;;;;;;;;5006116;28;21006;-56
2021/01/24 09:17:42;;;;;;;9.33;7.63;;;;;;;;;;5005588;28;20457;-57
2021/01/24 09:20:09;;;;;;;9.90;7.27;;;;;;;;;;5019055;28;20421;-56
2021/01/24 09:22:35;;;;;;;9.57;6.83;;;;;;;;;;5000238;28;20425;-56
2021/01/24 09:25:01;;;;;;;8.57;6.90;;;;;;;;;;5019902;28;20447;-56
2021/01/24 09:27:27;;;;;;;9.53;6.63;;;;;;;;;;5024532;28;20439;-57
2021/01/24 09:29:53;;;;;;;6.90;6.13;;;;;;;;;;5003484;28;20440;-57
2021/01/24 09:32:19;;;;;;;7.93;6.57;;;;;;;;;;5009474;28;20540;-57
2021/01/24 09:34:45;;;;;;;8.67;6.83;;;;;;;;;;5004038;28;20633;-57
2021/01/24 09:37:11;;;;;;;8.23;6.63;;;;;;;;;;5019245;28;20187;-56
2021/01/24 09:39:37;;;;;;;7.57;6.13;;;;;;;;;;5016525;28;20511;-57
2021/01/24 09:42:03;;;;;;;8.20;6.27;;;;;;;;;;5021026;28;20567;-56
2021/01/24 09:44:29;;;;;;;7.83;6.00;;;;;;;;;;5016991;28;20653;-56
2021/01/24 09:46:55;;;;;;;6.93;5.40;;;;;;;;;;5019006;28;20528;-58
2021/01/24 09:49:22;;;;;;;7.77;5.30;;;;;;;;;;5024489;28;20428;-56
2021/01/24 09:51:48;;;;;;;7.57;5.73;;;;;;;;;;5016717;28;20969;-57
2021/01/24 09:54:15;;;;;;;6.73;5.47;;;;;;;;;;5018655;28;20428;-58
2021/01/24 09:56:41;;;;;;;6.20;5.07;;;;;;;;;;5022909;28;20428;-58
2021/01/24 09:59:07;;;;;;;8.93;5.37;;;;;;;;;;5015863;28;20430;-58
2021/01/24 10:01:34;;;;;;;7.00;5.30;;;;;;;;;;5018994;28;20416;-58
2021/01/24 10:04:00;;;;;;;4.90;4.40;;;;;;;;;;5019181;28;20426;-58
2021/01/24 10:06:26;;;;;;;5.30;4.57;;;;;;;;;;5020169;28;20547;-58
2021/01/24 10:08:53;;;;;;;5.30;4.80;;;;;;;;;;5002632;28;20441;-59
2021/01/24 10:11:21;;;;;;;4.63;4.23;;;;;;;;;;5018876;28;20952;-61
2021/01/24 10:13:47;;;;;;;4.90;3.93;;;;;;;;;;5003291;28;20507;-60
2021/01/24 10:16:14;;;;;;;4.20;3.60;;;;;;;;;;5012513;28;20468;-58
2021/01/24 10:18:40;;;;;;;5.63;4.20;;;;;;;;;;5017648;28;22081;-58
2021/01/24 10:21:07;;;;;;;5.47;4.33;;;;;;;;;;5009996;28;20425;-57
2021/01/24 10:23:33;;;;;;;4.87;4.13;;;;;;;;;;5017231;28;20421;-58
2021/01/24 10:26:00;;;;;;;4.67;3.90;;;;;;;;;;5026904;28;20425;-58
2021/01/24 10:28:27;;;;;;;3.43;3.13;;;;;;;;;;5019048;28;20970;-57
2021/01/24 10:30:54;;;;;;;4.17;3.77;;;;;;;;;;5023665;28;20520;-58
2021/01/24 10:33:21;;;;;;;4.90;4.07;;;;;;;;;;5024675;28;20506;-58
2021/01/24 10:35:47;;;;;;;3.33;3.03;;;;;;;;;;5018650;28;20419;-58
2021/01/24 10:38:15;;;;;;;7.73;4.00;;;;;;;;;;5023741;28;21014;-57
2021/01/24 10:40:41;;;;;;;4.47;3.60;;;;;;;;;;5003986;28;20998;-58
2021/01/24 10:43:08;;;;;;;3.77;3.23;;;;;;;;;;5021475;28;20925;-58
2021/01/24 10:45:34;;;;;;;6.33;3.77;;;;;;;;;;5025092;28;20832;-57
2021/01/24 10:48:01;;;;;;;4.47;4.07;;;;;;;;;;5027992;28;20995;-58
2021/01/24 10:50:28;;;;;;;4.60;4.10;;;;;;;;;;5016703;28;20416;-58
2021/01/24 10:52:55;;;;;;;4.80;4.30;;;;;;;;;;5002856;28;20491;-58
2021/01/24 10:55:21;;;;;;;4.93;4.43;;;;;;;;;;5023656;28;20448;-58
2021/01/24 10:57:48;;;;;;;4.37;3.97;;;;;;;;;;5027160;28;20539;-60
2021/01/24 11:00:15;;;;;;;4.57;3.70;;;;;;;;;;5030160;28;20926;-58
2021/01/24 11:02:41;;;;;;;5.20;4.40;;;;;;;;;;5028730;28;20428;-57
2021/01/24 11:05:08;;;;;;;4.70;4.17;;;;;;;;;;5022152;28;20516;-59
2021/01/24 11:07:34;;;;;;;4.83;4.30;;;;;;;;;;5007470;28;20483;-58
2021/01/24 11:10:00;;;;;;;5.57;4.30;;;;;;;;;;5027497;28;20459;-59
2021/01/24 11:12:27;;;;;;;4.63;4.20;;;;;;;;;;5028033;28;20541;-58
2021/01/24 11:14:56;;;;;;;4.60;3.90;;;;;;;;;;5029787;28;20512;-60
2021/01/24 11:17:23;;;;;;;4.60;4.20;;;;;;;;;;5026759;28;20424;-58
2021/01/24 11:19:51;;;;;;;5.00;4.30;;;;;;;;;;5025101;28;20457;-58
2021/01/24 11:22:21;;;;;;;5.03;4.43;;;;;;;;;;5028749;28;20432;-58
2021/01/24 11:24:47;;;;;;;4.70;4.30;;;;;;;;;;5025314;28;20471;-57
2021/01/24 11:27:14;;;;;;;6.37;4.60;;;;;;;;;;5027418;28;20460;-58
2021/01/24 11:29:41;;;;;;;4.23;3.83;;;;;;;;;;5027110;28;20429;-57
2021/01/24 11:32:07;;;;;;;7.60;4.13;;;;;;;;;;5027905;28;20460;-57
2021/01/24 11:34:33;;;;;;;4.70;4.30;;;;;;;;;;5027677;28;20421;-60
2021/01/24 11:37:00;;;;;;;5.37;4.80;;;;;;;;;;5025206;28;20490;-58
2021/01/24 11:39:26;;;;;;;6.27;4.87;;;;;;;;;;5027882;28;20791;-58
2021/01/24 11:41:52;;;;;;;4.87;3.97;;;;;;;;;;5026294;28;20432;-57
2021/01/24 11:44:19;;;;;;;6.17;4.67;;;;;;;;;;5010379;28;20435;-58
2021/01/24 11:46:45;;;;;;;5.50;4.60;;;;;;;;;;5026771;28;20877;-57
2021/01/24 11:49:11;;;;;;;5.00;4.50;;;;;;;;;;5026657;28;20454;-58
2021/01/24 11:51:38;;;;;;;5.10;4.60;;;;;;;;;;5025513;28;20550;-59
2021/01/24 11:54:04;;;;;;;6.23;4.40;;;;;;;;;;5024236;28;20420;-60
2021/01/24 11:56:31;;;;;;;6.03;4.90;;;;;;;;;;5028113;28;20501;-57
2021/01/24 11:58:57;;;;;;;6.90;5.47;;;;;;;;;;5005519;28;20425;-58
2021/01/24 12:01:23;;;;;;;5.90;5.30;;;;;;;;;;5028557;28;20417;-58
2021/01/24 12:03:49;;;;;;;10.40;5.93;;;;;;;;;;5028151;28;20451;-57
2021/01/24 12:06:15;;;;;;;7.33;5.70;;;;;;;;;;5022695;28;20423;-57
2021/01/24 12:08:42;;;;;;;6.40;5.37;;;;;;;;;;5006602;28;20449;-59
2021/01/24 12:11:08;;;;;;;6.90;5.80;;;;;;;;;;5027345;28;20460;-58
2021/01/24 12:13:34;;;;;;;6.87;5.77;;;;;;;;;;5025417;28;20420;-57
2021/01/24 12:16:01;;;;;;;7.83;6.20;;;;;;;;;;5007059;28;20425;-57
2021/01/24 12:18:27;;;;;;;6.17;5.57;;;;;;;;;;5028013;28;20494;-58
2021/01/24 12:20:53;;;;;;;8.43;6.23;;;;;;;;;;5026655;28;20454;-57
2021/01/24 12:23:20;;;;;;;6.50;5.20;;;;;;;;;;5025870;28;20809;-58
2021/01/24 12:25:47;;;;;;;5.67;5.07;;;;;;;;;;5023309;28;20512;-59
2021/01/24 12:28:14;;;;;;;7.60;6.00;;;;;;;;;;5026678;28;20519;-57
2021/01/24 12:30:40;;;;;;;11.10;6.07;;;;;;;;;;5026452;28;20464;-57
2021/01/24 12:33:11;;;;;;;6.63;5.53;;;;;;;;;;5026604;28;20892;-57
2021/01/24 12:35:37;;;;;;;9.13;5.77;;;;;;;;;;5025000;28;20435;-58
2021/01/24 12:38:04;;;;;;;7.80;6.10;;;;;;;;;;5027322;28;20434;-59
2021/01/24 12:40:30;;;;;;;7.27;6.20;;;;;;;;;;5008512;28;20448;-58
2021/01/24 12:42:56;;;;;;;7.63;6.30;;;;;;;;;;5007883;28;20435;-57
2021/01/24 12:45:22;;;;;;;6.77;6.07;;;;;;;;;;5025801;28;20479;-57
2021/01/24 12:47:49;;;;;;;9.53;6.70;;;;;;;;;;5024012;28;20441;-57
2021/01/24 12:50:16;;;;;;;7.83;6.20;;;;;;;;;;5025431;28;20427;-58
2021/01/24 12:52:42;;;;;;;7.37;5.87;;;;;;;;;;5019551;28;20503;-58
2021/01/24 12:55:09;;;;;;;9.03;6.27;;;;;;;;;;5025947;28;20498;-57
2021/01/24 12:57:35;;;;;;;7.13;6.17;;;;;;;;;;5027211;28;20425;-57
2021/01/24 13:00:01;;;;;;;6.70;6.03;;;;;;;;;;5011454;28;20507;-58
2021/01/24 13:02:27;;;;;;;7.27;6.57;;;;;;;;;;5026451;28;20420;-58
2021/01/24 13:04:56;;;;;;;9.63;6.57;;;;;;;;;;5026376;28;20424;-58
2021/01/24 13:07:22;;;;;;;7.53;6.03;;;;;;;;;;5026764;28;20224;-57
2021/01/24 13:09:49;;;;;;;6.67;5.97;;;;;;;;;;5023978;28;20498;-58
2021/01/24 13:12:15;;;;;;;9.37;7.10;;;;;;;;;;5023598;28;20868;-60
2021/01/24 13:14:41;;;;;;;7.77;6.60;;;;;;;;;;5024418;28;20425;-57
2021/01/24 13:17:07;;;;;;;8.67;6.00;;;;;;;;;;5007768;28;20807;-57
2021/01/24 13:19:33;;;;;;;7.93;6.73;;;;;;;;;;5025703;28;20181;-58
2021/01/24 13:21:59;;;;;;;8.77;6.47;;;;;;;;;;5027308;28;20432;-58
2021/01/24 13:24:27;;;;;;;8.60;7.20;;;;;;;;;;5026141;28;20431;-58
2021/01/24 13:26:56;;;;;;;7.07;6.00;;;;;;;;;;5026855;28;20436;-58
2021/01/24 13:29:23;;;;;;;7.90;6.47;;;;;;;;;;5025943;28;20830;-57
2021/01/24 13:31:49;;;;;;;8.90;6.87;;;;;;;;;;5026467;28;20456;-57
2021/01/24 13:34:15;;;;;;;6.73;5.50;;;;;;;;;;5007778;28;20417;-58
2021/01/24 13:36:41;;;;;;;7.37;6.60;;;;;;;;;;5008716;28;20423;-57
2021/01/24 13:39:07;;;;;;;9.60;7.23;;;;;;;;;;5012629;28;20438;-58
2021/01/24 13:41:34;;;;;;;9.90;6.97;;;;;;;;;;5026930;28;20874;-59
2021/01/24 13:44:00;;;;;;;9.23;6.40;;;;;;;;;;5001704;28;20452;-60
2021/01/24 13:46:26;;;;;;;7.70;6.13;;;;;;;;;;5026436;28;20422;-58
2021/01/24 13:48:52;;;;;;;9.20;7.43;;;;;;;;;;5008489;28;20646;-57
2021/01/24 13:51:18;;;;;;;6.53;5.87;;;;;;;;;;5026180;28;20425;-57
2021/01/24 13:53:44;;;;;;;7.83;6.83;;;;;;;;;;5025604;28;20486;-57
2021/01/24 13:56:11;;;;;;;7.23;6.50;;;;;;;;;;5024958;28;20432;-57
2021/01/24 13:58:37;;;;;;;8.63;7.20;;;;;;;;;;5006865;28;20420;-57
2021/01/24 14:01:04;;;;;;;7.10;6.40;;;;;;;;;;5026530;28;20420;-58
2021/01/24 14:03:30;;;;;;;8.67;6.87;;;;;;;;;;5025504;28;20842;-57
2021/01/24 14:05:56;;;;;;;8.60;6.70;;;;;;;;;;5026045;28;20630;-57
2021/01/24 14:08:22;;;;;;;6.93;6.23;;;;;;;;;;5025325;28;20259;-57
2021/01/24 14:10:48;;;;;;;8.40;7.00;;;;;;;;;;5024836;28;20545;-58
2021/01/24 14:13:15;;;;;;;7.10;6.30;;;;;;;;;;5025789;28;20468;-58
2021/01/24 14:15:41;;;;;;;7.43;6.67;;;;;;;;;;5010091;28;20475;-58
2021/01/24 14:18:07;;;;;;;10.80;8.00;;;;;;;;;;5027489;28;20428;-57
2021/01/24 14:20:34;;;;;;;9.67;7.10;;;;;;;;;;5009905;28;20463;-58
2021/01/24 14:23:01;;;;;;;13.60;8.67;;;;;;;;;;5027417;28;20957;-58
2021/01/24 14:25:27;;;;;;;11.33;8.53;;;;;;;;;;5024267;28;20181;-58
2021/01/24 14:27:53;;;;;;;10.40;7.40;;;;;;;;;;5021131;28;20432;-58
2021/01/24 14:30:23;;;;;;;9.23;7.20;;;;;;;;;;5026559;28;20428;-58
2021/01/24 14:32:49;;;;;;;10.17;7.30;;;;;;;;;;5025282;28;20453;-57
2021/01/24 14:35:16;;;;;;;11.53;6.83;;;;;;;;;;5007238;28;20765;-58
2021/01/24 14:37:42;;;;;;;9.93;7.50;;;;;;;;;;5021458;28;20464;-58
2021/01/24 14:40:09;;;;;;;8.10;6.63;;;;;;;;;;5019505;28;20479;-58
2021/01/24 14:42:36;;;;;;;8.17;6.67;;;;;;;;;;5000658;28;20446;-59